sensor_id;sensor_type;location;lat;lon;timestamp;pressure;altitude;pressure_sealevel;temperature;humidity
11936;BME280;6027;48.576;9.180;2023-03-01T00:01:02;97536.19;;;-0.10;80.34
11936;BME280;6027;48.576;9.180;2023-03-01T00:03:28;97532.91;;;-0.26;80.49
11936;BME280;6027;48.576;9.180;2023-03-01T00:05:53;97531.47;;;-0.18;80.66
11936;BME280;6027;48.576;9.180;2023-03-01T00:08:19;97531.47;;;-0.18;80.92
11936;BME280;6027;48.576;9.180;2023-03-01T00:10:44;97534.41;;;-0.22;80.52
11936;BME280;6027;48.576;9.180;2023-03-01T00:13:10;97534.06;;;-0.18;80.51
11936;BME280;6027;48.576;9.180;2023-03-01T00:15:41;97536.47;;;-0.15;80.13
11936;BME280;6027;48.576;9.180;2023-03-01T00:18:07;97536.16;;;-0.23;80.80
11936;BME280;6027;48.576;9.180;2023-03-01T00:20:33;97539.78;;;-0.25;80.77
11936;BME280;6027;48.576;9.180;2023-03-01T00:22:59;97534.25;;;-0.33;81.60
11936;BME280;6027;48.576;9.180;2023-03-01T00:25:24;97537.47;;;-0.30;81.30
11936;BME280;6027;48.576;9.180;2023-03-01T00:27:50;97534.16;;;-0.32;82.37
11936;BME280;6027;48.576;9.180;2023-03-01T00:30:16;97531.22;;;-0.40;82.13
11936;BME280;6027;48.576;9.180;2023-03-01T00:32:41;97527.47;;;-0.36;82.40
11936;BME280;6027;48.576;9.180;2023-03-01T00:35:07;97519.34;;;-0.44;82.30
11936;BME280;6027;48.576;9.180;2023-03-01T00:37:32;97521.44;;;-0.37;82.05
11936;BME280;6027;48.576;9.180;2023-03-01T00:39:58;97529.22;;;-0.37;81.93
11936;BME280;6027;48.576;9.180;2023-03-01T00:42:23;97522.59;;;-0.41;82.21
11936;BME280;6027;48.576;9.180;2023-03-01T00:44:48;97519.66;;;-0.36;81.65
11936;BME280;6027;48.576;9.180;2023-03-01T00:47:14;97521.13;;;-0.32;81.44
11936;BME280;6027;48.576;9.180;2023-03-01T00:49:39;97511.25;;;-0.40;81.56
11936;BME280;6027;48.576;9.180;2023-03-01T00:52:05;97514.88;;;-0.42;81.79
11936;BME280;6027;48.576;9.180;2023-03-01T00:54:31;97508.94;;;-0.44;81.84
11936;BME280;6027;48.576;9.180;2023-03-01T00:56:56;97513.72;;;-0.38;81.55
11936;BME280;6027;48.576;9.180;2023-03-01T00:59:22;97512.47;;;-0.45;81.30
11936;BME280;6027;48.576;9.180;2023-03-01T01:01:47;97516.53;;;-0.41;81.76
11936;BME280;6027;48.576;9.180;2023-03-01T01:04:14;97512.06;;;-0.39;81.32
11936;BME280;6027;48.576;9.180;2023-03-01T01:06:44;97509.56;;;-0.41;81.68
11936;BME280;6027;48.576;9.180;2023-03-01T01:09:13;97505.69;;;-0.48;81.32
11936;BME280;6027;48.576;9.180;2023-03-01T01:11:49;97501.91;;;-0.56;82.22
11936;BME280;6027;48.576;9.180;2023-03-01T01:14:16;97505.78;;;-0.49;82.18
11936;BME280;6027;48.576;9.180;2023-03-01T01:16:42;97503.81;;;-0.46;82.21
11936;BME280;6027;48.576;9.180;2023-03-01T01:19:07;97500.19;;;-0.43;82.17
11936;BME280;6027;48.576;9.180;2023-03-01T01:21:33;97495.16;;;-0.59;82.61
11936;BME280;6027;48.576;9.180;2023-03-01T01:23:59;97499.50;;;-0.59;82.49
11936;BME280;6027;48.576;9.180;2023-03-01T01:26:29;97496.00;;;-0.58;82.00
11936;BME280;6027;48.576;9.180;2023-03-01T01:28:56;97490.78;;;-0.58;82.54
11936;BME280;6027;48.576;9.180;2023-03-01T01:31:22;97486.44;;;-0.72;83.06
11936;BME280;6027;48.576;9.180;2023-03-01T01:33:51;97488.53;;;-0.77;83.51
11936;BME280;6027;48.576;9.180;2023-03-01T01:36:17;97481.84;;;-0.81;84.04
11936;BME280;6027;48.576;9.180;2023-03-01T01:38:43;97480.91;;;-0.80;84.81
11936;BME280;6027;48.576;9.180;2023-03-01T01:41:09;97486.22;;;-0.82;85.32
11936;BME280;6027;48.576;9.180;2023-03-01T01:43:48;97478.13;;;-0.77;85.32
11936;BME280;6027;48.576;9.180;2023-03-01T01:46:25;97479.56;;;-0.73;85.86
11936;BME280;6027;48.576;9.180;2023-03-01T01:49:00;97480.81;;;-0.79;85.97
11936;BME280;6027;48.576;9.180;2023-03-01T01:51:36;97483.91;;;-0.86;87.11
11936;BME280;6027;48.576;9.180;2023-03-01T01:54:10;97484.09;;;-0.89;87.61
11936;BME280;6027;48.576;9.180;2023-03-01T01:56:40;97486.31;;;-0.83;87.89
11936;BME280;6027;48.576;9.180;2023-03-01T01:59:08;97474.88;;;-0.81;88.30
11936;BME280;6027;48.576;9.180;2023-03-01T02:01:33;97469.50;;;-0.78;88.14
11936;BME280;6027;48.576;9.180;2023-03-01T02:03:59;97465.53;;;-0.71;88.29
11936;BME280;6027;48.576;9.180;2023-03-01T02:06:32;97463.69;;;-0.68;88.53
11936;BME280;6027;48.576;9.180;2023-03-01T02:09:02;97462.22;;;-0.73;88.87
11936;BME280;6027;48.576;9.180;2023-03-01T02:11:31;97457.00;;;-0.73;88.73
11936;BME280;6027;48.576;9.180;2023-03-01T02:13:57;97451.63;;;-0.70;89.25
11936;BME280;6027;48.576;9.180;2023-03-01T02:16:23;97443.72;;;-0.68;89.01
11936;BME280;6027;48.576;9.180;2023-03-01T02:18:49;97452.34;;;-0.67;89.38
11936;BME280;6027;48.576;9.180;2023-03-01T02:23:47;97449.94;;;-0.71;89.58
11936;BME280;6027;48.576;9.180;2023-03-01T02:29:02;97444.56;;;-0.67;90.21
11936;BME280;6027;48.576;9.180;2023-03-01T02:31:28;97438.63;;;-0.70;90.06
11936;BME280;6027;48.576;9.180;2023-03-01T02:34:17;97438.28;;;-0.78;91.03
11936;BME280;6027;48.576;9.180;2023-03-01T02:36:55;97430.09;;;-0.72;91.43
11936;BME280;6027;48.576;9.180;2023-03-01T02:39:25;97427.84;;;-0.63;91.03
11936;BME280;6027;48.576;9.180;2023-03-01T02:41:53;97428.75;;;-0.64;90.89
11936;BME280;6027;48.576;9.180;2023-03-01T02:44:19;97422.09;;;-0.68;91.14
11936;BME280;6027;48.576;9.180;2023-03-01T02:46:51;97427.28;;;-0.68;91.04
11936;BME280;6027;48.576;9.180;2023-03-01T02:52:16;97411.72;;;-0.56;90.59
11936;BME280;6027;48.576;9.180;2023-03-01T02:57:30;97419.03;;;-0.48;90.33
11936;BME280;6027;48.576;9.180;2023-03-01T02:59:57;97421.28;;;-0.56;90.93
11936;BME280;6027;48.576;9.180;2023-03-01T03:02:27;97418.16;;;-0.61;91.69
11936;BME280;6027;48.576;9.180;2023-03-01T03:05:09;97415.56;;;-0.61;92.00
11936;BME280;6027;48.576;9.180;2023-03-01T03:07:37;97407.56;;;-0.58;91.98
11936;BME280;6027;48.576;9.180;2023-03-01T03:10:05;97417.53;;;-0.65;92.21
11936;BME280;6027;48.576;9.180;2023-03-01T03:12:31;97410.00;;;-0.70;92.65
11936;BME280;6027;48.576;9.180;2023-03-01T03:14:56;97404.91;;;-0.71;93.62
11936;BME280;6027;48.576;9.180;2023-03-01T03:17:22;97401.00;;;-0.64;93.17
11936;BME280;6027;48.576;9.180;2023-03-01T03:19:48;97392.56;;;-0.67;92.93
11936;BME280;6027;48.576;9.180;2023-03-01T03:22:13;97399.22;;;-0.63;93.17
11936;BME280;6027;48.576;9.180;2023-03-01T03:24:39;97401.41;;;-0.57;92.75
11936;BME280;6027;48.576;9.180;2023-03-01T03:27:05;97401.00;;;-0.64;93.14
11936;BME280;6027;48.576;9.180;2023-03-01T03:29:30;97394.75;;;-0.61;93.29
11936;BME280;6027;48.576;9.180;2023-03-01T03:31:56;97400.19;;;-0.52;93.39
11936;BME280;6027;48.576;9.180;2023-03-01T03:34:22;97391.00;;;-0.57;93.61
11936;BME280;6027;48.576;9.180;2023-03-01T03:36:47;97396.25;;;-0.45;93.74
11936;BME280;6027;48.576;9.180;2023-03-01T03:39:12;97389.28;;;-0.44;93.15
11936;BME280;6027;48.576;9.180;2023-03-01T03:41:38;97396.78;;;-0.40;92.80
11936;BME280;6027;48.576;9.180;2023-03-01T03:44:03;97391.44;;;-0.38;92.29
11936;BME280;6027;48.576;9.180;2023-03-01T03:46:29;97393.84;;;-0.35;92.47
11936;BME280;6027;48.576;9.180;2023-03-01T03:48:55;97385.44;;;-0.39;92.48
11936;BME280;6027;48.576;9.180;2023-03-01T03:51:20;97383.66;;;-0.38;92.03
11936;BME280;6027;48.576;9.180;2023-03-01T03:53:48;97386.38;;;-0.40;92.80
11936;BME280;6027;48.576;9.180;2023-03-01T03:56:13;97384.47;;;-0.38;91.65
11936;BME280;6027;48.576;9.180;2023-03-01T03:58:39;97381.38;;;-0.43;91.42
11936;BME280;6027;48.576;9.180;2023-03-01T04:01:04;97383.97;;;-0.43;91.17
11936;BME280;6027;48.576;9.180;2023-03-01T04:03:31;97378.34;;;-0.49;91.76
11936;BME280;6027;48.576;9.180;2023-03-01T04:05:58;97380.34;;;-0.40;91.58
11936;BME280;6027;48.576;9.180;2023-03-01T04:08:24;97379.28;;;-0.38;91.25
11936;BME280;6027;48.576;9.180;2023-03-01T04:10:52;97371.06;;;-0.44;91.09
11936;BME280;6027;48.576;9.180;2023-03-01T04:13:20;97370.63;;;-0.38;91.07
11936;BME280;6027;48.576;9.180;2023-03-01T04:15:48;97365.56;;;-0.40;90.65
11936;BME280;6027;48.576;9.180;2023-03-01T04:18:16;97370.63;;;-0.38;90.54
11936;BME280;6027;48.576;9.180;2023-03-01T04:20:42;97372.00;;;-0.32;90.11
11936;BME280;6027;48.576;9.180;2023-03-01T04:23:15;97359.53;;;-0.40;90.39
11936;BME280;6027;48.576;9.180;2023-03-01T04:25:54;97367.94;;;-0.37;90.24
11936;BME280;6027;48.576;9.180;2023-03-01T04:28:24;97365.88;;;-0.44;91.01
11936;BME280;6027;48.576;9.180;2023-03-01T04:30:55;97369.00;;;-0.39;90.51
11936;BME280;6027;48.576;9.180;2023-03-01T04:35:48;97363.69;;;-0.25;90.76
11936;BME280;6027;48.576;9.180;2023-03-01T04:38:15;97359.44;;;-0.26;90.03
11936;BME280;6027;48.576;9.180;2023-03-01T04:40:41;97352.47;;;-0.25;90.54
11936;BME280;6027;48.576;9.180;2023-03-01T04:43:10;97352.66;;;-0.28;90.22
11936;BME280;6027;48.576;9.180;2023-03-01T04:45:35;97359.34;;;-0.24;90.40
11936;BME280;6027;48.576;9.180;2023-03-01T04:48:02;97356.53;;;-0.21;90.69
11936;BME280;6027;48.576;9.180;2023-03-01T04:50:28;97355.34;;;-0.17;90.52
11936;BME280;6027;48.576;9.180;2023-03-01T04:52:55;97357.13;;;-0.18;90.80
11936;BME280;6027;48.576;9.180;2023-03-01T04:55:25;97351.63;;;-0.13;90.22
11936;BME280;6027;48.576;9.180;2023-03-01T04:57:51;97351.22;;;-0.20;90.43
11936;BME280;6027;48.576;9.180;2023-03-01T05:00:17;97356.91;;;-0.15;90.10
11936;BME280;6027;48.576;9.180;2023-03-01T05:02:53;97355.16;;;-0.27;90.66
11936;BME280;6027;48.576;9.180;2023-03-01T05:05:30;97357.03;;;-0.29;91.17
11936;BME280;6027;48.576;9.180;2023-03-01T05:07:59;97352.75;;;-0.17;90.16
11936;BME280;6027;48.576;9.180;2023-03-01T05:10:26;97341.41;;;-0.29;90.75
11936;BME280;6027;48.576;9.180;2023-03-01T05:12:54;97352.47;;;-0.25;89.82
11936;BME280;6027;48.576;9.180;2023-03-01T05:15:19;97351.63;;;-0.26;90.27
11936;BME280;6027;48.576;9.180;2023-03-01T05:17:47;97344.34;;;-0.21;89.24
11936;BME280;6027;48.576;9.180;2023-03-01T05:20:13;97342.47;;;-0.31;89.42
11936;BME280;6027;48.576;9.180;2023-03-01T05:22:38;97340.81;;;-0.20;89.02
11936;BME280;6027;48.576;9.180;2023-03-01T05:25:04;97348.72;;;-0.21;89.69
11936;BME280;6027;48.576;9.180;2023-03-01T05:27:30;97351.53;;;-0.24;89.44
11936;BME280;6027;48.576;9.180;2023-03-01T05:29:56;97348.28;;;-0.28;89.40
11936;BME280;6027;48.576;9.180;2023-03-01T05:32:21;97349.56;;;-0.21;89.00
11936;BME280;6027;48.576;9.180;2023-03-01T05:34:47;97325.63;;;-0.39;89.53
11936;BME280;6027;48.576;9.180;2023-03-01T05:37:13;97351.41;;;-0.23;89.21
11936;BME280;6027;48.576;9.180;2023-03-01T05:39:38;97350.06;;;-0.28;89.73
11936;BME280;6027;48.576;9.180;2023-03-01T05:42:04;97351.41;;;-0.23;89.27
11936;BME280;6027;48.576;9.180;2023-03-01T05:44:30;97354.53;;;-0.18;88.96
11936;BME280;6027;48.576;9.180;2023-03-01T05:46:55;97348.72;;;-0.21;89.05
11936;BME280;6027;48.576;9.180;2023-03-01T05:49:21;97348.91;;;-0.24;89.65
11936;BME280;6027;48.576;9.180;2023-03-01T05:51:51;97349.03;;;-0.26;89.67
11936;BME280;6027;48.576;9.180;2023-03-01T05:54:18;97346.84;;;-0.19;89.88
11936;BME280;6027;48.576;9.180;2023-03-01T05:56:44;97344.56;;;-0.24;89.44
11936;BME280;6027;48.576;9.180;2023-03-01T05:59:10;97346.13;;;-0.21;89.77
11936;BME280;6027;48.576;9.180;2023-03-01T06:01:36;97333.50;;;-0.15;89.56
11936;BME280;6027;48.576;9.180;2023-03-01T06:04:02;97336.44;;;-0.19;89.27
11936;BME280;6027;48.576;9.180;2023-03-01T06:06:28;97345.19;;;-0.20;88.91
11936;BME280;6027;48.576;9.180;2023-03-01T06:08:53;97340.81;;;-0.20;89.63
11936;BME280;6027;48.576;9.180;2023-03-01T06:11:20;97341.66;;;-0.19;89.12
11936;BME280;6027;48.576;9.180;2023-03-01T06:13:46;97340.06;;;-0.09;88.91
11936;BME280;6027;48.576;9.180;2023-03-01T06:16:12;97336.94;;;-0.14;88.69
11936;BME280;6027;48.576;9.180;2023-03-01T06:18:38;97338.94;;;-0.05;88.30
11936;BME280;6027;48.576;9.180;2023-03-01T06:21:05;97329.88;;;-0.12;88.57
11936;BME280;6027;48.576;9.180;2023-03-01T06:23:31;97324.88;;;-0.03;88.69
11936;BME280;6027;48.576;9.180;2023-03-01T06:25:57;97331.22;;;-0.07;88.36
11936;BME280;6027;48.576;9.180;2023-03-01T06:28:22;97342.47;;;-0.06;88.40
11936;BME280;6027;48.576;9.180;2023-03-01T06:30:49;97333.28;;;0.01;87.73
11936;BME280;6027;48.576;9.180;2023-03-01T06:33:15;97339.03;;;-0.07;88.03
11936;BME280;6027;48.576;9.180;2023-03-01T06:35:40;97330.59;;;-0.10;88.49
11936;BME280;6027;48.576;9.180;2023-03-01T06:38:06;97346.84;;;-0.07;88.08
11936;BME280;6027;48.576;9.180;2023-03-01T06:40:32;97335.16;;;-0.14;88.88
11936;BME280;6027;48.576;9.180;2023-03-01T06:42:57;97347.34;;;-0.14;88.52
11936;BME280;6027;48.576;9.180;2023-03-01T06:45:23;97348.38;;;-0.17;88.85
11936;BME280;6027;48.576;9.180;2023-03-01T06:47:50;97338.91;;;-0.18;89.60
11936;BME280;6027;48.576;9.180;2023-03-01T06:50:16;97335.38;;;-0.17;89.67
11936;BME280;6027;48.576;9.180;2023-03-01T06:52:42;97349.13;;;-0.15;89.68
11936;BME280;6027;48.576;9.180;2023-03-01T06:55:12;97330.81;;;-0.26;90.81
11936;BME280;6027;48.576;9.180;2023-03-01T06:57:38;97338.63;;;-0.26;90.88
11936;BME280;6027;48.576;9.180;2023-03-01T07:00:04;97337.03;;;-0.16;90.82
11936;BME280;6027;48.576;9.180;2023-03-01T07:02:30;97329.13;;;-0.14;90.67
11936;BME280;6027;48.576;9.180;2023-03-01T07:04:55;97339.13;;;-0.08;90.48
11936;BME280;6027;48.576;9.180;2023-03-01T07:07:21;97327.47;;;-0.03;90.44
11936;BME280;6027;48.576;9.180;2023-03-01T07:09:48;97323.38;;;0.06;89.99
11936;BME280;6027;48.576;9.180;2023-03-01T07:12:14;97326.00;;;-0.07;90.69
11936;BME280;6027;48.576;9.180;2023-03-01T07:14:40;97327.88;;;0.04;90.27
11936;BME280;6027;48.576;9.180;2023-03-01T07:17:06;97328.72;;;-0.08;90.34
11936;BME280;6027;48.576;9.180;2023-03-01T07:19:31;97337.16;;;-0.05;90.50
11936;BME280;6027;48.576;9.180;2023-03-01T07:21:57;97331.72;;;-0.14;91.28
11936;BME280;6027;48.576;9.180;2023-03-01T07:24:22;97319.56;;;-0.14;91.72
11936;BME280;6027;48.576;9.180;2023-03-01T07:26:49;97325.59;;;-0.13;91.96
11936;BME280;6027;48.576;9.180;2023-03-01T07:29:15;97327.69;;;-0.06;91.76
11936;BME280;6027;48.576;9.180;2023-03-01T07:31:41;97310.28;;;-0.05;91.44
11936;BME280;6027;48.576;9.180;2023-03-01T07:34:06;97318.09;;;-0.05;91.22
11936;BME280;6027;48.576;9.180;2023-03-01T07:36:32;97312.91;;;-0.05;91.96
11936;BME280;6027;48.576;9.180;2023-03-01T07:38:58;97318.28;;;0.05;91.22
11936;BME280;6027;48.576;9.180;2023-03-01T07:41:23;97310.19;;;-0.04;91.73
11936;BME280;6027;48.576;9.180;2023-03-01T07:43:49;97309.97;;;-0.01;90.85
11936;BME280;6027;48.576;9.180;2023-03-01T07:46:14;97293.09;;;0.05;90.08
11936;BME280;6027;48.576;9.180;2023-03-01T07:48:40;97306.09;;;0.18;89.74
11936;BME280;6027;48.576;9.180;2023-03-01T07:51:06;97304.97;;;0.46;89.56
11936;BME280;6027;48.576;9.180;2023-03-01T07:53:33;97299.47;;;0.61;86.75
11936;BME280;6027;48.576;9.180;2023-03-01T07:58:27;97294.13;;;0.76;84.72
11936;BME280;6027;48.576;9.180;2023-03-01T08:00:53;97289.34;;;0.69;85.02
11936;BME280;6027;48.576;9.180;2023-03-01T08:03:18;97287.19;;;0.87;84.22
11936;BME280;6027;48.576;9.180;2023-03-01T08:05:44;97290.19;;;0.94;82.98
11936;BME280;6027;48.576;9.180;2023-03-01T08:08:09;97280.72;;;1.04;82.91
11936;BME280;6027;48.576;9.180;2023-03-01T08:10:36;97285.28;;;1.13;82.33
11936;BME280;6027;48.576;9.180;2023-03-01T08:13:02;97290.38;;;1.15;81.24
11936;BME280;6027;48.576;9.180;2023-03-01T08:15:27;97287.41;;;1.19;82.04
11936;BME280;6027;48.576;9.180;2023-03-01T08:17:53;97290.66;;;1.34;81.01
11936;BME280;6027;48.576;9.180;2023-03-01T08:20:18;97291.13;;;1.39;80.41
11936;BME280;6027;48.576;9.180;2023-03-01T08:22:44;97284.06;;;1.52;80.34
11936;BME280;6027;48.576;9.180;2023-03-01T08:25:09;97286.44;;;1.66;79.87
11936;BME280;6027;48.576;9.180;2023-03-01T08:27:35;97279.44;;;1.67;78.12
11936;BME280;6027;48.576;9.180;2023-03-01T08:30:00;97281.34;;;1.65;79.64
11936;BME280;6027;48.576;9.180;2023-03-01T08:32:26;97280.03;;;1.59;78.77
11936;BME280;6027;48.576;9.180;2023-03-01T08:34:51;97280.38;;;1.77;78.43
11936;BME280;6027;48.576;9.180;2023-03-01T08:37:16;97281.13;;;1.90;77.98
11936;BME280;6027;48.576;9.180;2023-03-01T08:39:42;97288.22;;;1.99;76.04
11936;BME280;6027;48.576;9.180;2023-03-01T08:42:07;97289.91;;;2.00;75.12
11936;BME280;6027;48.576;9.180;2023-03-01T08:44:33;97275.88;;;2.13;76.08
11936;BME280;6027;48.576;9.180;2023-03-01T08:47:00;97279.47;;;2.12;74.75
11936;BME280;6027;48.576;9.180;2023-03-01T08:49:27;97272.31;;;2.25;73.35
11936;BME280;6027;48.576;9.180;2023-03-01T08:51:53;97266.84;;;2.28;72.55
11936;BME280;6027;48.576;9.180;2023-03-01T08:54:21;97265.63;;;2.32;72.96
11936;BME280;6027;48.576;9.180;2023-03-01T08:56:48;97271.06;;;2.51;72.19
11936;BME280;6027;48.576;9.180;2023-03-01T08:59:15;97273.00;;;2.49;71.57
11936;BME280;6027;48.576;9.180;2023-03-01T09:01:41;97271.56;;;2.45;70.55
11936;BME280;6027;48.576;9.180;2023-03-01T09:04:10;97264.44;;;2.47;70.84
11936;BME280;6027;48.576;9.180;2023-03-01T09:06:36;97260.47;;;2.53;71.21
11936;BME280;6027;48.576;9.180;2023-03-01T09:09:04;97253.88;;;2.69;69.58
11936;BME280;6027;48.576;9.180;2023-03-01T09:11:30;97256.38;;;2.71;70.43
11936;BME280;6027;48.576;9.180;2023-03-01T09:13:56;97260.09;;;2.68;69.61
11936;BME280;6027;48.576;9.180;2023-03-01T09:16:22;97241.28;;;2.74;69.27
11936;BME280;6027;48.576;9.180;2023-03-01T09:18:53;97243.91;;;2.74;68.42
11936;BME280;6027;48.576;9.180;2023-03-01T09:21:20;97247.69;;;2.82;68.80
11936;BME280;6027;48.576;9.180;2023-03-01T09:23:47;97233.03;;;3.11;68.48
11936;BME280;6027;48.576;9.180;2023-03-01T09:26:19;97243.56;;;3.00;67.20
11936;BME280;6027;48.576;9.180;2023-03-01T09:28:45;97248.91;;;2.98;67.34
11936;BME280;6027;48.576;9.180;2023-03-01T09:31:12;97244.28;;;3.02;66.60
11936;BME280;6027;48.576;9.180;2023-03-01T09:33:39;97246.88;;;3.02;66.43
11936;BME280;6027;48.576;9.180;2023-03-01T09:36:08;97241.78;;;3.21;66.87
11936;BME280;6027;48.576;9.180;2023-03-01T09:38:35;97241.22;;;3.38;66.01
11936;BME280;6027;48.576;9.180;2023-03-01T09:41:01;97242.53;;;3.33;64.59
11936;BME280;6027;48.576;9.180;2023-03-01T09:46:10;97233.34;;;3.38;65.70
11936;BME280;6027;48.576;9.180;2023-03-01T09:49:07;97237.78;;;3.68;65.23
11936;BME280;6027;48.576;9.180;2023-03-01T09:51:36;97235.38;;;3.56;65.23
11936;BME280;6027;48.576;9.180;2023-03-01T09:54:03;97226.13;;;3.52;63.78
11936;BME280;6027;48.576;9.180;2023-03-01T10:09:42;97211.34;;;3.71;63.68
11936;BME280;6027;48.576;9.180;2023-03-01T10:12:21;97209.53;;;3.72;64.46
11936;BME280;6027;48.576;9.180;2023-03-01T10:20:23;97202.28;;;3.85;65.50
11936;BME280;6027;48.576;9.180;2023-03-01T10:22:49;97191.41;;;3.80;63.81
11936;BME280;6027;48.576;9.180;2023-03-01T10:30:42;97190.59;;;3.89;64.94
11936;BME280;6027;48.576;9.180;2023-03-01T10:33:31;97197.09;;;4.04;64.10
11936;BME280;6027;48.576;9.180;2023-03-01T10:35:58;97188.97;;;4.07;63.89
11936;BME280;6027;48.576;9.180;2023-03-01T10:38:23;97173.56;;;4.24;63.63
11936;BME280;6027;48.576;9.180;2023-03-01T10:41:04;97181.19;;;4.36;63.00
11936;BME280;6027;48.576;9.180;2023-03-01T10:43:51;97177.31;;;4.31;61.81
11936;BME280;6027;48.576;9.180;2023-03-01T10:46:30;97172.94;;;4.41;61.52
11936;BME280;6027;48.576;9.180;2023-03-01T10:49:21;97160.22;;;4.36;62.58
11936;BME280;6027;48.576;9.180;2023-03-01T10:51:48;97165.34;;;4.38;61.59
11936;BME280;6027;48.576;9.180;2023-03-01T10:54:23;97166.03;;;4.49;61.84
11936;BME280;6027;48.576;9.180;2023-03-01T10:56:53;97166.44;;;4.55;61.90
11936;BME280;6027;48.576;9.180;2023-03-01T11:02:13;97128.88;;;4.44;60.77
11936;BME280;6027;48.576;9.180;2023-03-01T11:04:59;97142.97;;;4.72;61.06
11936;BME280;6027;48.576;9.180;2023-03-01T11:07:25;97148.50;;;4.69;59.91
11936;BME280;6027;48.576;9.180;2023-03-01T11:09:50;97137.88;;;4.80;60.33
11936;BME280;6027;48.576;9.180;2023-03-01T11:12:16;97136.88;;;4.62;59.44
11936;BME280;6027;48.576;9.180;2023-03-01T11:14:53;97124.19;;;4.67;59.70
11936;BME280;6027;48.576;9.180;2023-03-01T11:17:27;97136.22;;;4.79;59.38
11936;BME280;6027;48.576;9.180;2023-03-01T11:22:49;97117.56;;;4.63;59.32
11936;BME280;6027;48.576;9.180;2023-03-01T11:25:17;97115.09;;;4.71;59.29
11936;BME280;6027;48.576;9.180;2023-03-01T11:27:45;97101.69;;;4.74;59.44
11936;BME280;6027;48.576;9.180;2023-03-01T11:30:39;97111.75;;;4.89;59.03
11936;BME280;6027;48.576;9.180;2023-03-01T11:38:23;97091.63;;;4.79;58.68
11936;BME280;6027;48.576;9.180;2023-03-01T11:48:56;97082.16;;;5.06;58.17
11936;BME280;6027;48.576;9.180;2023-03-01T11:51:59;97077.81;;;5.24;58.97
11936;BME280;6027;48.576;9.180;2023-03-01T12:00:25;97064.03;;;5.49;58.27
11936;BME280;6027;48.576;9.180;2023-03-01T12:03:26;97067.91;;;5.45;57.56
11936;BME280;6027;48.576;9.180;2023-03-01T12:06:19;97058.38;;;5.44;57.48
11936;BME280;6027;48.576;9.180;2023-03-01T12:15:03;97034.09;;;5.60;56.59
11936;BME280;6027;48.576;9.180;2023-03-01T12:25:38;97016.50;;;5.88;56.39
11936;BME280;6027;48.576;9.180;2023-03-01T12:28:17;97017.06;;;5.92;56.90
11936;BME280;6027;48.576;9.180;2023-03-01T12:38:56;97016.50;;;5.88;56.35
11936;BME280;6027;48.576;9.180;2023-03-01T12:41:35;97004.66;;;6.02;56.09
11936;BME280;6027;48.576;9.180;2023-03-01T12:44:22;96992.44;;;5.93;55.80
11936;BME280;6027;48.576;9.180;2023-03-01T12:49:49;96984.56;;;6.10;56.97
11936;BME280;6027;48.576;9.180;2023-03-01T12:52:30;96965.59;;;6.24;56.29
11936;BME280;6027;48.576;9.180;2023-03-01T12:55:01;96969.16;;;6.41;55.73
11936;BME280;6027;48.576;9.180;2023-03-01T12:57:38;96970.22;;;6.48;55.38
11936;BME280;6027;48.576;9.180;2023-03-01T13:00:22;96959.63;;;6.40;54.73
11936;BME280;6027;48.576;9.180;2023-03-01T13:05:31;96962.09;;;6.42;54.80
11936;BME280;6027;48.576;9.180;2023-03-01T13:10:46;96959.13;;;6.63;55.79
11936;BME280;6027;48.576;9.180;2023-03-01T13:13:18;96956.31;;;6.64;55.63
11936;BME280;6027;48.576;9.180;2023-03-01T13:15:44;96959.28;;;6.61;54.71
11936;BME280;6027;48.576;9.180;2023-03-01T13:30:58;96955.28;;;6.83;54.36
11936;BME280;6027;48.576;9.180;2023-03-01T13:35:56;96943.63;;;6.93;54.61
11936;BME280;6027;48.576;9.180;2023-03-01T13:38:46;96936.25;;;6.97;54.03
11936;BME280;6027;48.576;9.180;2023-03-01T13:41:17;96933.38;;;7.08;54.29
11936;BME280;6027;48.576;9.180;2023-03-01T13:43:44;96937.44;;;7.03;53.36
11936;BME280;6027;48.576;9.180;2023-03-01T13:46:20;96941.88;;;7.02;53.82
11936;BME280;6027;48.576;9.180;2023-03-01T13:48:50;96950.81;;;7.09;54.54
11936;BME280;6027;48.576;9.180;2023-03-01T13:51:22;96940.59;;;7.06;52.83
11936;BME280;6027;48.576;9.180;2023-03-01T13:53:48;96940.06;;;7.03;53.35
11936;BME280;6027;48.576;9.180;2023-03-01T13:56:37;96938.56;;;7.00;52.94
11936;BME280;6027;48.576;9.180;2023-03-01T13:59:20;96928.56;;;7.04;53.40
11936;BME280;6027;48.576;9.180;2023-03-01T14:01:52;96932.84;;;7.13;53.72
11936;BME280;6027;48.576;9.180;2023-03-01T14:04:20;96931.72;;;7.07;53.14
11936;BME280;6027;48.576;9.180;2023-03-01T14:06:46;96934.34;;;7.07;53.58
11936;BME280;6027;48.576;9.180;2023-03-01T14:09:22;96929.09;;;7.15;53.77
11936;BME280;6027;48.576;9.180;2023-03-01T14:19:26;96945.72;;;7.16;52.87
11936;BME280;6027;48.576;9.180;2023-03-01T14:22:20;96944.06;;;7.15;52.35
11936;BME280;6027;48.576;9.180;2023-03-01T14:24:51;96939.44;;;7.09;52.97
11936;BME280;6027;48.576;9.180;2023-03-01T14:27:18;96944.88;;;7.07;53.09
11936;BME280;6027;48.576;9.180;2023-03-01T14:29:54;96950.31;;;7.14;53.53
11936;BME280;6027;48.576;9.180;2023-03-01T14:32:22;96949.22;;;7.24;52.96
11936;BME280;6027;48.576;9.180;2023-03-01T14:34:50;96945.59;;;7.25;53.34
11936;BME280;6027;48.576;9.180;2023-03-01T14:37:29;96949.66;;;7.12;52.36
11936;BME280;6027;48.576;9.180;2023-03-01T14:39:57;96950.47;;;7.12;53.09
11936;BME280;6027;48.576;9.180;2023-03-01T14:42:25;96956.91;;;7.18;52.93
11936;BME280;6027;48.576;9.180;2023-03-01T14:44:54;96954.94;;;7.20;53.40
11936;BME280;6027;48.576;9.180;2023-03-01T14:47:32;96963.31;;;7.15;52.39
11936;BME280;6027;48.576;9.180;2023-03-01T14:52:34;96950.88;;;7.25;52.71
11936;BME280;6027;48.576;9.180;2023-03-01T14:55:05;96950.03;;;7.33;52.41
11936;BME280;6027;48.576;9.180;2023-03-01T14:57:31;96946.22;;;7.19;52.97
11936;BME280;6027;48.576;9.180;2023-03-01T14:59:59;96948.53;;;7.22;53.12
11936;BME280;6027;48.576;9.180;2023-03-01T15:02:28;96954.16;;;7.27;53.27
11936;BME280;6027;48.576;9.180;2023-03-01T15:04:57;96937.34;;;7.20;53.64
11936;BME280;6027;48.576;9.180;2023-03-01T15:07:29;96935.84;;;7.18;52.84
11936;BME280;6027;48.576;9.180;2023-03-01T15:09:55;96935.22;;;7.24;53.57
11936;BME280;6027;48.576;9.180;2023-03-01T15:14:53;96948.34;;;7.16;53.95
11936;BME280;6027;48.576;9.180;2023-03-01T15:17:26;96951.50;;;7.19;53.52
11936;BME280;6027;48.576;9.180;2023-03-01T15:19:54;96961.03;;;7.20;54.04
11936;BME280;6027;48.576;9.180;2023-03-01T15:22:20;96952.47;;;7.10;53.32
11936;BME280;6027;48.576;9.180;2023-03-01T15:24:48;96964.63;;;7.11;53.61
11936;BME280;6027;48.576;9.180;2023-03-01T15:27:17;96954.44;;;7.16;53.96
11936;BME280;6027;48.576;9.180;2023-03-01T15:29:49;96952.31;;;7.12;54.54